LFBT/LDE METAR and TAF weather

Enter ICAO airport designator
Station Type Date Time Source
LFBT METAR 2020/08/11 18:30 UTC NOAA

LFBT 111830Z AUTO VRB02KT CAVOK 25/18 Q1013 TEMPO 28018G30KT 4000 TSRA BECMG BKN100TCU


Station Type Date Time Source
LFBT Decoded METAR 2020/08/11 18:30 UTC NOAA

Tarbes Ossun Lourdes, France (LFBT) 43-11N 000-00W 363M
Aug 11, 2020 - 02:30 PM EDT / 2020.08.11 1830 UTC
Wind: Variable at 2 MPH (2 KT):0
Visibility: greater than 7 mile(s):0
Weather: Towering cumulus clouds observed
Temperature: 77 F (25 C)
Dew Point: 64 F (18 C)
Relative Humidity: 65%
Pressure (altimeter): 29.91 in. Hg (1013 hPa)
ob: LFBT 111830Z AUTO VRB02KT CAVOK 25/18 Q1013 TEMPO 28018G30KT 4000 TSRA BECMG BKN100TCU
cycle: 18

Station Type Date Time Source
LFBT TAF 2020/08/11 18:47 UTC NOAA

TAF LFBT 111700Z 1118/1218 21006KT 9999 BKN100TCU
TEMPO 1118/1120 28018G30KT 4000 TSRA BKN055CB PROB30
TEMPO 1215/1218 VRB18G35KT 1200 TSGR BKN050CB

Example: see airport list